sensor_id;sensor_type;location;lat;lon;timestamp;pressure;altitude;pressure_sealevel;temperature;humidity
4085;BME280;2057;50.858;6.572;2023-05-23T00:02:00;100508.50;;;15.32;100.00
4085;BME280;2057;50.858;6.572;2023-05-23T00:04:26;100502.56;;;15.33;100.00
4085;BME280;2057;50.858;6.572;2023-05-23T00:06:51;100511.69;;;15.25;100.00
4085;BME280;2057;50.858;6.572;2023-05-23T00:09:18;100504.34;;;15.36;100.00
4085;BME280;2057;50.858;6.572;2023-05-23T00:11:43;100507.72;;;15.35;100.00
4085;BME280;2057;50.858;6.572;2023-05-23T00:14:12;100495.84;;;15.37;100.00
4085;BME280;2057;50.858;6.572;2023-05-23T00:16:42;100503.50;;;15.35;100.00
4085;BME280;2057;50.858;6.572;2023-05-23T00:19:12;100501.91;;;15.41;100.00
4085;BME280;2057;50.858;6.572;2023-05-23T00:21:41;100502.72;;;15.38;100.00
4085;BME280;2057;50.858;6.572;2023-05-23T00:24:12;100505.00;;;15.29;100.00
4085;BME280;2057;50.858;6.572;2023-05-23T00:26:37;100505.13;;;15.33;100.00
4085;BME280;2057;50.858;6.572;2023-05-23T00:29:03;100503.25;;;15.28;100.00
4085;BME280;2057;50.858;6.572;2023-05-23T00:31:28;100502.97;;;15.18;100.00
4085;BME280;2057;50.858;6.572;2023-05-23T00:33:53;100502.28;;;14.95;100.00
4085;BME280;2057;50.858;6.572;2023-05-23T00:36:19;100494.03;;;15.04;100.00
4085;BME280;2057;50.858;6.572;2023-05-23T00:38:45;100502.47;;;15.01;100.00
4085;BME280;2057;50.858;6.572;2023-05-23T00:41:11;100501.75;;;14.78;100.00
4085;BME280;2057;50.858;6.572;2023-05-23T00:43:36;100510.81;;;14.96;100.00
4085;BME280;2057;50.858;6.572;2023-05-23T00:46:02;100504.09;;;14.72;100.00
4085;BME280;2057;50.858;6.572;2023-05-23T00:48:27;100505.78;;;14.71;100.00
4085;BME280;2057;50.858;6.572;2023-05-23T00:50:54;100495.84;;;14.55;100.00
4085;BME280;2057;50.858;6.572;2023-05-23T00:53:20;100496.91;;;14.62;100.00
4085;BME280;2057;50.858;6.572;2023-05-23T00:55:46;100500.03;;;14.79;100.00
4085;BME280;2057;50.858;6.572;2023-05-23T00:58:12;100501.78;;;14.80;100.00
4085;BME280;2057;50.858;6.572;2023-05-23T01:00:40;100501.75;;;14.78;100.00
4085;BME280;2057;50.858;6.572;2023-05-23T01:03:06;100504.19;;;14.75;100.00
4085;BME280;2057;50.858;6.572;2023-05-23T01:05:31;100505.75;;;14.70;100.00
4085;BME280;2057;50.858;6.572;2023-05-23T01:07:57;100512.59;;;14.71;100.00
4085;BME280;2057;50.858;6.572;2023-05-23T01:10:25;100512.75;;;14.76;100.00
4085;BME280;2057;50.858;6.572;2023-05-23T01:15:50;100513.75;;;14.81;100.00
4085;BME280;2057;50.858;6.572;2023-05-23T01:18:25;100515.28;;;14.76;100.00
4085;BME280;2057;50.858;6.572;2023-05-23T01:20:56;100512.13;;;14.83;100.00
4085;BME280;2057;50.858;6.572;2023-05-23T01:26:39;100509.88;;;14.66;100.00
4085;BME280;2057;50.858;6.572;2023-05-23T01:29:23;100505.56;;;14.65;100.00
4085;BME280;2057;50.858;6.572;2023-05-23T01:31:52;100507.91;;;14.59;100.00
4085;BME280;2057;50.858;6.572;2023-05-23T01:34:20;100512.88;;;14.54;100.00
4085;BME280;2057;50.858;6.572;2023-05-23T01:36:49;100524.59;;;14.49;100.00
4085;BME280;2057;50.858;6.572;2023-05-23T01:39:14;100515.47;;;14.56;100.00
4085;BME280;2057;50.858;6.572;2023-05-23T01:41:40;100524.59;;;14.49;100.00
4085;BME280;2057;50.858;6.572;2023-05-23T01:44:06;100533.19;;;14.51;100.00
4085;BME280;2057;50.858;6.572;2023-05-23T01:46:33;100541.94;;;14.58;100.00
4085;BME280;2057;50.858;6.572;2023-05-23T01:49:01;100534.31;;;14.59;100.00
4085;BME280;2057;50.858;6.572;2023-05-23T01:51:28;100541.94;;;14.58;100.00
4085;BME280;2057;50.858;6.572;2023-05-23T01:53:55;100540.91;;;14.53;100.00
4085;BME280;2057;50.858;6.572;2023-05-23T01:56:21;100547.91;;;14.58;100.00
4085;BME280;2057;50.858;6.572;2023-05-23T01:58:46;100551.81;;;14.47;100.00
4085;BME280;2057;50.858;6.572;2023-05-23T02:01:12;100546.72;;;14.47;100.00
4085;BME280;2057;50.858;6.572;2023-05-23T02:03:37;100555.34;;;14.51;100.00
4085;BME280;2057;50.858;6.572;2023-05-23T02:06:03;100549.75;;;14.37;100.00
4085;BME280;2057;50.858;6.572;2023-05-23T02:08:28;100555.94;;;14.43;100.00
4085;BME280;2057;50.858;6.572;2023-05-23T02:10:54;100561.25;;;14.50;100.00
4085;BME280;2057;50.858;6.572;2023-05-23T02:13:19;100570.09;;;14.59;100.00
4085;BME280;2057;50.858;6.572;2023-05-23T02:15:44;100569.66;;;14.71;100.00
4085;BME280;2057;50.858;6.572;2023-05-23T02:18:10;100583.03;;;14.64;100.00
4085;BME280;2057;50.858;6.572;2023-05-23T02:20:35;100573.16;;;14.49;100.00
4085;BME280;2057;50.858;6.572;2023-05-23T02:23:00;100569.53;;;14.42;100.00
4085;BME280;2057;50.858;6.572;2023-05-23T02:25:26;100572.28;;;14.49;100.00
4085;BME280;2057;50.858;6.572;2023-05-23T02:27:51;100574.69;;;14.44;100.00
4085;BME280;2057;50.858;6.572;2023-05-23T02:30:17;100572.28;;;14.49;100.00
4085;BME280;2057;50.858;6.572;2023-05-23T02:32:42;100584.25;;;14.50;100.00
4085;BME280;2057;50.858;6.572;2023-05-23T02:35:07;100580.78;;;14.48;100.00
4085;BME280;2057;50.858;6.572;2023-05-23T02:37:34;100587.66;;;14.50;100.00
4085;BME280;2057;50.858;6.572;2023-05-23T02:39:59;100579.63;;;14.39;100.00
4085;BME280;2057;50.858;6.572;2023-05-23T02:42:25;100578.81;;;14.40;100.00
4085;BME280;2057;50.858;6.572;2023-05-23T02:44:50;100574.72;;;14.46;100.00
4085;BME280;2057;50.858;6.572;2023-05-23T02:47:16;100578.06;;;14.43;100.00
4085;BME280;2057;50.858;6.572;2023-05-23T02:49:41;100576.38;;;14.43;100.00
4085;BME280;2057;50.858;6.572;2023-05-23T02:52:06;100575.16;;;14.58;100.00
4085;BME280;2057;50.858;6.572;2023-05-23T02:54:32;100578.22;;;14.48;100.00
4085;BME280;2057;50.858;6.572;2023-05-23T02:56:57;100579.06;;;14.48;100.00
4085;BME280;2057;50.858;6.572;2023-05-23T02:59:23;100575.69;;;14.49;100.00
4085;BME280;2057;50.858;6.572;2023-05-23T03:01:48;100573.84;;;14.43;100.00
4085;BME280;2057;50.858;6.572;2023-05-23T03:04:14;100585.69;;;14.41;100.00
4085;BME280;2057;50.858;6.572;2023-05-23T03:06:40;100579.91;;;14.47;100.00
4085;BME280;2057;50.858;6.572;2023-05-23T03:09:07;100580.56;;;14.41;100.00
4085;BME280;2057;50.858;6.572;2023-05-23T03:11:32;100587.59;;;14.47;100.00
4085;BME280;2057;50.858;6.572;2023-05-23T03:13:58;100588.16;;;14.40;100.00
4085;BME280;2057;50.858;6.572;2023-05-23T03:16:23;100582.84;;;14.34;100.00
4085;BME280;2057;50.858;6.572;2023-05-23T03:18:49;100592.56;;;14.20;100.00
4085;BME280;2057;50.858;6.572;2023-05-23T03:21:14;100587.47;;;14.20;100.00
4085;BME280;2057;50.858;6.572;2023-05-23T03:23:39;100591.53;;;14.15;100.00
4085;BME280;2057;50.858;6.572;2023-05-23T03:26:05;100589.78;;;14.14;100.00
4085;BME280;2057;50.858;6.572;2023-05-23T03:28:31;100593.75;;;14.05;100.00
4085;BME280;2057;50.858;6.572;2023-05-23T03:30:57;100598.16;;;14.09;100.00
4085;BME280;2057;50.858;6.572;2023-05-23T03:33:22;100600.59;;;14.06;100.00
4085;BME280;2057;50.858;6.572;2023-05-23T03:35:47;100609.53;;;13.95;100.00
4085;BME280;2057;50.858;6.572;2023-05-23T03:38:13;100606.41;;;14.02;100.00
4085;BME280;2057;50.858;6.572;2023-05-23T03:40:39;100609.41;;;13.92;100.00
4085;BME280;2057;50.858;6.572;2023-05-23T03:43:05;100599.38;;;13.96;100.00
4085;BME280;2057;50.858;6.572;2023-05-23T03:45:31;100607.75;;;13.92;100.00
4085;BME280;2057;50.858;6.572;2023-05-23T03:47:57;100596.47;;;13.87;100.00
4085;BME280;2057;50.858;6.572;2023-05-23T03:50:23;100604.97;;;13.86;100.00
4085;BME280;2057;50.858;6.572;2023-05-23T03:52:48;100603.34;;;13.88;100.00
4085;BME280;2057;50.858;6.572;2023-05-23T03:55:14;100613.38;;;13.84;100.00
4085;BME280;2057;50.858;6.572;2023-05-23T03:57:39;100615.03;;;13.82;100.00
4085;BME280;2057;50.858;6.572;2023-05-23T04:00:05;100626.88;;;13.81;100.00
4085;BME280;2057;50.858;6.572;2023-05-23T04:02:36;100611.53;;;13.79;100.00
4085;BME280;2057;50.858;6.572;2023-05-23T04:05:01;100620.00;;;13.78;100.00
4085;BME280;2057;50.858;6.572;2023-05-23T04:07:27;100610.59;;;13.77;100.00
4085;BME280;2057;50.858;6.572;2023-05-23T04:09:52;100601.19;;;13.76;100.00
4085;BME280;2057;50.858;6.572;2023-05-23T04:12:18;100617.03;;;13.68;100.00
4085;BME280;2057;50.858;6.572;2023-05-23T04:14:43;100611.56;;;13.81;100.00
4085;BME280;2057;50.858;6.572;2023-05-23T04:17:11;100615.34;;;13.68;100.00
4085;BME280;2057;50.858;6.572;2023-05-23T04:19:37;100623.81;;;13.67;100.00
4085;BME280;2057;50.858;6.572;2023-05-23T04:22:02;100624.97;;;13.75;100.00
4085;BME280;2057;50.858;6.572;2023-05-23T04:24:28;100629.03;;;13.70;100.00
4085;BME280;2057;50.858;6.572;2023-05-23T04:26:53;100627.41;;;13.72;100.00
4085;BME280;2057;50.858;6.572;2023-05-23T04:29:20;100623.31;;;13.76;100.00
4085;BME280;2057;50.858;6.572;2023-05-23T04:31:46;100626.53;;;13.72;100.00
4085;BME280;2057;50.858;6.572;2023-05-23T04:34:11;100631.47;;;13.67;100.00
4085;BME280;2057;50.858;6.572;2023-05-23T04:36:36;100628.09;;;13.68;100.00
4085;BME280;2057;50.858;6.572;2023-05-23T04:39:04;100626.66;;;13.75;100.00
4085;BME280;2057;50.858;6.572;2023-05-23T04:41:29;100618.78;;;13.91;100.00
4085;BME280;2057;50.858;6.572;2023-05-23T04:43:55;100628.03;;;13.89;100.00
4085;BME280;2057;50.858;6.572;2023-05-23T04:46:22;100624.72;;;13.92;100.00
4085;BME280;2057;50.858;6.572;2023-05-23T04:48:51;100621.16;;;13.87;100.00
4085;BME280;2057;50.858;6.572;2023-05-23T04:51:17;100626.78;;;14.01;100.00
4085;BME280;2057;50.858;6.572;2023-05-23T04:53:42;100619.16;;;14.02;100.00
4085;BME280;2057;50.858;6.572;2023-05-23T04:56:08;100636.59;;;13.90;100.00
4085;BME280;2057;50.858;6.572;2023-05-23T04:58:34;100634.94;;;13.92;100.00
4085;BME280;2057;50.858;6.572;2023-05-23T05:00:59;100636.47;;;13.87;100.00
4085;BME280;2057;50.858;6.572;2023-05-23T05:03:24;100629.63;;;13.86;100.00
4085;BME280;2057;50.858;6.572;2023-05-23T05:05:50;100640.28;;;13.75;100.00
4085;BME280;2057;50.858;6.572;2023-05-23T05:08:16;100629.63;;;13.86;100.00
4085;BME280;2057;50.858;6.572;2023-05-23T05:10:44;100633.88;;;13.85;100.00
4085;BME280;2057;50.858;6.572;2023-05-23T05:13:09;100634.72;;;13.86;100.00
4085;BME280;2057;50.858;6.572;2023-05-23T05:15:35;100637.00;;;13.78;100.00
4085;BME280;2057;50.858;6.572;2023-05-23T05:18:00;100642.09;;;13.78;100.00
4085;BME280;2057;50.858;6.572;2023-05-23T05:20:26;100650.44;;;13.74;100.00
4085;BME280;2057;50.858;6.572;2023-05-23T05:22:56;100644.34;;;13.70;100.00
4085;BME280;2057;50.858;6.572;2023-05-23T05:25:27;100651.78;;;13.64;100.00
4085;BME280;2057;50.858;6.572;2023-05-23T05:27:57;100660.22;;;13.63;100.00
4085;BME280;2057;50.858;6.572;2023-05-23T05:30:22;100650.44;;;13.74;100.00
4085;BME280;2057;50.858;6.572;2023-05-23T05:32:48;100662.03;;;13.65;100.00
4085;BME280;2057;50.858;6.572;2023-05-23T05:35:13;100649.44;;;13.70;100.00
4085;BME280;2057;50.858;6.572;2023-05-23T05:37:38;100662.22;;;13.70;100.00
4085;BME280;2057;50.858;6.572;2023-05-23T05:40:04;100658.72;;;13.68;100.00
4085;BME280;2057;50.858;6.572;2023-05-23T05:42:32;100660.28;;;13.64;100.00
4085;BME280;2057;50.858;6.572;2023-05-23T05:44:57;100661.41;;;13.71;100.00
4085;BME280;2057;50.858;6.572;2023-05-23T05:47:23;100668.47;;;13.78;100.00
4085;BME280;2057;50.858;6.572;2023-05-23T05:49:48;100672.38;;;13.69;100.00
4085;BME280;2057;50.858;6.572;2023-05-23T05:52:14;100664.63;;;13.67;100.00
4085;BME280;2057;50.858;6.572;2023-05-23T05:54:39;100674.91;;;13.69;100.00
4085;BME280;2057;50.858;6.572;2023-05-23T05:57:05;100670.34;;;13.61;100.00
4085;BME280;2057;50.858;6.572;2023-05-23T05:59:30;100678.47;;;13.51;100.00
4085;BME280;2057;50.858;6.572;2023-05-23T06:01:55;100671.13;;;13.59;100.00
4085;BME280;2057;50.858;6.572;2023-05-23T06:04:20;100675.34;;;13.58;100.00
4085;BME280;2057;50.858;6.572;2023-05-23T06:06:46;100689.31;;;13.45;100.00
4085;BME280;2057;50.858;6.572;2023-05-23T06:09:11;100679.88;;;13.65;100.00
4085;BME280;2057;50.858;6.572;2023-05-23T06:11:36;100689.72;;;13.56;100.00
4085;BME280;2057;50.858;6.572;2023-05-23T06:14:05;100673.00;;;13.63;100.00
4085;BME280;2057;50.858;6.572;2023-05-23T06:16:31;100682.31;;;13.62;100.00
4085;BME280;2057;50.858;6.572;2023-05-23T06:18:56;100684.22;;;13.68;100.00
4085;BME280;2057;50.858;6.572;2023-05-23T06:21:21;100690.59;;;13.78;100.00
4085;BME280;2057;50.858;6.572;2023-05-23T06:23:47;100703.44;;;13.81;100.00
4085;BME280;2057;50.858;6.572;2023-05-23T06:26:12;100687.56;;;13.88;100.00
4085;BME280;2057;50.858;6.572;2023-05-23T06:28:38;100694.41;;;13.89;100.00
4085;BME280;2057;50.858;6.572;2023-05-23T06:31:06;100695.97;;;13.86;100.00
4085;BME280;2057;50.858;6.572;2023-05-23T06:33:33;100700.13;;;13.84;100.00
4085;BME280;2057;50.858;6.572;2023-05-23T06:35:59;100698.47;;;13.84;100.00
4085;BME280;2057;50.858;6.572;2023-05-23T06:38:26;100701.88;;;13.85;100.00
4085;BME280;2057;50.858;6.572;2023-05-23T06:40:51;100697.84;;;13.90;100.00
4085;BME280;2057;50.858;6.572;2023-05-23T06:43:17;100704.53;;;13.86;100.00
4085;BME280;2057;50.858;6.572;2023-05-23T06:45:44;100704.25;;;13.80;100.00
4085;BME280;2057;50.858;6.572;2023-05-23T06:48:11;100711.63;;;13.72;100.00
4085;BME280;2057;50.858;6.572;2023-05-23T06:50:36;100713.66;;;13.81;100.00
4085;BME280;2057;50.858;6.572;2023-05-23T06:53:01;100717.91;;;13.80;100.00
4085;BME280;2057;50.858;6.572;2023-05-23T06:55:27;100717.19;;;13.85;100.00
4085;BME280;2057;50.858;6.572;2023-05-23T06:57:52;100720.50;;;13.82;100.00
4085;BME280;2057;50.858;6.572;2023-05-23T07:00:18;100723.69;;;13.76;100.00
4085;BME280;2057;50.858;6.572;2023-05-23T07:02:43;100726.31;;;13.78;100.00
4085;BME280;2057;50.858;6.572;2023-05-23T07:05:10;100728.34;;;13.87;100.00
4085;BME280;2057;50.858;6.572;2023-05-23T07:07:35;100732.47;;;13.83;100.00
4085;BME280;2057;50.858;6.572;2023-05-23T07:10:01;100737.75;;;13.88;100.00
4085;BME280;2057;50.858;6.572;2023-05-23T07:12:26;100730.09;;;13.88;100.00
4085;BME280;2057;50.858;6.572;2023-05-23T07:14:51;100740.16;;;13.85;100.00
4085;BME280;2057;50.858;6.572;2023-05-23T07:17:17;100737.50;;;13.82;100.00
4085;BME280;2057;50.858;6.572;2023-05-23T07:19:42;100738.38;;;13.82;100.00
4085;BME280;2057;50.858;6.572;2023-05-23T07:22:07;100746.25;;;13.88;100.00
4085;BME280;2057;50.858;6.572;2023-05-23T07:24:33;100733.69;;;13.93;100.00
4085;BME280;2057;50.858;6.572;2023-05-23T07:26:58;100738.56;;;13.87;100.00
4085;BME280;2057;50.858;6.572;2023-05-23T07:29:23;100743.72;;;13.88;100.00
4085;BME280;2057;50.858;6.572;2023-05-23T07:31:49;100743.28;;;13.77;100.00
4085;BME280;2057;50.858;6.572;2023-05-23T07:34:15;100742.03;;;13.89;100.00
4085;BME280;2057;50.858;6.572;2023-05-23T07:36:40;100750.66;;;13.91;100.00
4085;BME280;2057;50.858;6.572;2023-05-23T07:39:06;100751.13;;;13.82;100.00
4085;BME280;2057;50.858;6.572;2023-05-23T07:41:32;100751.19;;;13.84;100.00
4085;BME280;2057;50.858;6.572;2023-05-23T07:43:57;100754.44;;;13.79;100.00
4085;BME280;2057;50.858;6.572;2023-05-23T07:46:22;100756.56;;;13.90;100.00
4085;BME280;2057;50.858;6.572;2023-05-23T07:48:48;100746.03;;;13.82;100.00
4085;BME280;2057;50.858;6.572;2023-05-23T07:51:13;100754.63;;;13.84;100.00
4085;BME280;2057;50.858;6.572;2023-05-23T07:53:38;100760.59;;;13.85;100.00
4085;BME280;2057;50.858;6.572;2023-05-23T07:56:05;100767.44;;;13.86;100.00
4085;BME280;2057;50.858;6.572;2023-05-23T07:58:30;100763.72;;;13.77;100.00
4085;BME280;2057;50.858;6.572;2023-05-23T08:00:56;100769.63;;;13.76;100.00
4085;BME280;2057;50.858;6.572;2023-05-23T08:03:22;100765.06;;;13.90;100.00
4085;BME280;2057;50.858;6.572;2023-05-23T08:05:47;100764.84;;;13.84;100.00
4085;BME280;2057;50.858;6.572;2023-05-23T08:08:14;100769.88;;;13.83;100.00
4085;BME280;2057;50.858;6.572;2023-05-23T08:10:39;100766.06;;;13.73;100.00
4085;BME280;2057;50.858;6.572;2023-05-23T08:13:05;100779.63;;;13.72;100.00
4085;BME280;2057;50.858;6.572;2023-05-23T08:15:31;100775.72;;;13.59;100.00
4085;BME280;2057;50.858;6.572;2023-05-23T08:17:57;100775.72;;;13.59;100.00
4085;BME280;2057;50.858;6.572;2023-05-23T08:20:24;100777.78;;;13.46;100.00
4085;BME280;2057;50.858;6.572;2023-05-23T08:23:04;100780.75;;;13.38;100.00
4085;BME280;2057;50.858;6.572;2023-05-23T08:25:29;100785.41;;;13.27;100.00
4085;BME280;2057;50.858;6.572;2023-05-23T08:27:57;100790.09;;;13.37;100.00
4085;BME280;2057;50.858;6.572;2023-05-23T08:30:26;100783.72;;;13.27;100.00
4085;BME280;2057;50.858;6.572;2023-05-23T08:32:52;100788.16;;;13.31;100.00
4085;BME280;2057;50.858;6.572;2023-05-23T08:35:18;100790.72;;;13.31;100.00
4085;BME280;2057;50.858;6.572;2023-05-23T08:37:44;100789.44;;;13.22;100.00
4085;BME280;2057;50.858;6.572;2023-05-23T08:40:20;100793.13;;;13.28;100.00
4085;BME280;2057;50.858;6.572;2023-05-23T08:42:46;100792.66;;;13.37;100.00
4085;BME280;2057;50.858;6.572;2023-05-23T08:45:13;100795.34;;;13.40;100.00
4085;BME280;2057;50.858;6.572;2023-05-23T08:47:41;100794.84;;;13.29;100.00
4085;BME280;2057;50.858;6.572;2023-05-23T08:50:12;100804.16;;;13.08;100.00
4085;BME280;2057;50.858;6.572;2023-05-23T08:52:58;100807.25;;;13.00;100.00
4085;BME280;2057;50.858;6.572;2023-05-23T08:55:26;100804.84;;;13.05;100.00
4085;BME280;2057;50.858;6.572;2023-05-23T08:57:52;100800.91;;;12.92;100.00
4085;BME280;2057;50.858;6.572;2023-05-23T09:00:19;100809.44;;;12.93;100.00
4085;BME280;2057;50.858;6.572;2023-05-23T09:02:45;100820.56;;;12.95;100.00
4085;BME280;2057;50.858;6.572;2023-05-23T09:05:12;100816.38;;;12.97;100.00
4085;BME280;2057;50.858;6.572;2023-05-23T09:07:42;100823.13;;;12.95;100.00
4085;BME280;2057;50.858;6.572;2023-05-23T09:10:09;100814.69;;;12.96;100.00
4085;BME280;2057;50.858;6.572;2023-05-23T09:12:35;100823.13;;;12.95;100.00
4085;BME280;2057;50.858;6.572;2023-05-23T09:15:02;100829.75;;;12.91;100.00
4085;BME280;2057;50.858;6.572;2023-05-23T09:17:27;100832.22;;;12.90;100.00
4085;BME280;2057;50.858;6.572;2023-05-23T09:19:52;100831.78;;;12.98;100.00
4085;BME280;2057;50.858;6.572;2023-05-23T09:22:25;100842.19;;;13.03;100.00
4085;BME280;2057;50.858;6.572;2023-05-23T09:24:51;100836.78;;;12.97;100.00
4085;BME280;2057;50.858;6.572;2023-05-23T09:27:18;100841.09;;;12.98;100.00
4085;BME280;2057;50.858;6.572;2023-05-23T09:29:43;100829.97;;;12.96;100.00
4085;BME280;2057;50.858;6.572;2023-05-23T09:32:18;100840.28;;;12.99;100.00
4085;BME280;2057;50.858;6.572;2023-05-23T09:34:57;100850.63;;;13.02;100.00
4085;BME280;2057;50.858;6.572;2023-05-23T09:37:37;100846.50;;;12.86;100.00
4085;BME280;2057;50.858;6.572;2023-05-23T09:40:10;100849.09;;;12.87;100.00
4085;BME280;2057;50.858;6.572;2023-05-23T09:42:44;100851.53;;;12.84;100.00
4085;BME280;2057;50.858;6.572;2023-05-23T09:45:11;100850.75;;;12.85;100.00
4085;BME280;2057;50.858;6.572;2023-05-23T09:47:36;100851.97;;;12.76;100.00
4085;BME280;2057;50.858;6.572;2023-05-23T09:50:03;100852.53;;;12.88;100.00
4085;BME280;2057;50.858;6.572;2023-05-23T09:52:38;100858.66;;;12.92;100.00
4085;BME280;2057;50.858;6.572;2023-05-23T09:55:04;100851.66;;;12.87;100.00
4085;BME280;2057;50.858;6.572;2023-05-23T09:57:36;100848.59;;;12.95;100.00
4085;BME280;2057;50.858;6.572;2023-05-23T10:00:04;100850.69;;;13.03;100.00
4085;BME280;2057;50.858;6.572;2023-05-23T10:05:45;100840.75;;;13.29;100.00
4085;BME280;2057;50.858;6.572;2023-05-23T10:08:18;100844.41;;;13.15;100.00
4085;BME280;2057;50.858;6.572;2023-05-23T10:13:35;100855.59;;;13.58;100.00
4085;BME280;2057;50.858;6.572;2023-05-23T10:16:07;100854.81;;;13.59;100.00
4085;BME280;2057;50.858;6.572;2023-05-23T10:18:38;100860.84;;;13.61;100.00
4085;BME280;2057;50.858;6.572;2023-05-23T10:21:13;100862.97;;;13.91;100.00
4085;BME280;2057;50.858;6.572;2023-05-23T10:23:44;100874.88;;;13.92;100.00
4085;BME280;2057;50.858;6.572;2023-05-23T10:26:11;100878.75;;;13.82;100.00
4085;BME280;2057;50.858;6.572;2023-05-23T10:28:36;100872.41;;;13.93;100.00
4085;BME280;2057;50.858;6.572;2023-05-23T10:31:02;100874.38;;;13.79;100.00
4085;BME280;2057;50.858;6.572;2023-05-23T10:33:33;100871.16;;;13.84;100.00
4085;BME280;2057;50.858;6.572;2023-05-23T10:36:13;100877.69;;;13.77;100.00
4085;BME280;2057;50.858;6.572;2023-05-23T10:39:20;100868.88;;;13.90;100.00
4085;BME280;2057;50.858;6.572;2023-05-23T10:41:55;100869.81;;;14.13;100.00
4085;BME280;2057;50.858;6.572;2023-05-23T10:44:28;100881.28;;;14.23;99.88
4085;BME280;2057;50.858;6.572;2023-05-23T10:46:55;100877.16;;;14.05;99.39
4085;BME280;2057;50.858;6.572;2023-05-23T10:49:51;100885.06;;;14.11;99.00
4085;BME280;2057;50.858;6.572;2023-05-23T10:52:18;100895.09;;;14.28;97.37
4085;BME280;2057;50.858;6.572;2023-05-23T10:57:11;100894.59;;;14.16;98.66
4085;BME280;2057;50.858;6.572;2023-05-23T10:59:40;100894.59;;;14.16;97.68
4085;BME280;2057;50.858;6.572;2023-05-23T11:02:11;100893.97;;;14.21;96.33
4085;BME280;2057;50.858;6.572;2023-05-23T11:04:37;100896.88;;;14.31;96.50
4085;BME280;2057;50.858;6.572;2023-05-23T11:07:03;100897.94;;;14.57;94.72
4085;BME280;2057;50.858;6.572;2023-05-23T11:09:28;100899.56;;;14.55;93.90
4085;BME280;2057;50.858;6.572;2023-05-23T11:11:58;100892.81;;;15.01;94.69
4085;BME280;2057;50.858;6.572;2023-05-23T11:16:57;100887.56;;;15.20;88.23
4085;BME280;2057;50.858;6.572;2023-05-23T11:19:24;100897.69;;;14.72;88.22
4085;BME280;2057;50.858;6.572;2023-05-23T11:21:59;100895.78;;;14.89;90.71
4085;BME280;2057;50.858;6.572;2023-05-23T11:27:26;100891.31;;;15.79;86.29
4085;BME280;2057;50.858;6.572;2023-05-23T11:30:18;100892.03;;;16.26;84.53
4085;BME280;2057;50.858;6.572;2023-05-23T11:32:52;100891.00;;;16.47;81.38
4085;BME280;2057;50.858;6.572;2023-05-23T11:35:18;100896.63;;;16.37;81.00
4085;BME280;2057;50.858;6.572;2023-05-23T11:37:45;100887.75;;;16.53;80.50
4085;BME280;2057;50.858;6.572;2023-05-23T11:40:25;100886.34;;;16.62;78.55
4085;BME280;2057;50.858;6.572;2023-05-23T11:42:52;100890.00;;;16.42;79.09
4085;BME280;2057;50.858;6.572;2023-05-23T11:45:24;100883.03;;;16.39;80.77
4085;BME280;2057;50.858;6.572;2023-05-23T11:47:50;100879.50;;;16.08;81.33
4085;BME280;2057;50.858;6.572;2023-05-23T11:50:16;100887.53;;;16.19;81.01
4085;BME280;2057;50.858;6.572;2023-05-23T11:52:41;100883.19;;;16.17;79.92
4085;BME280;2057;50.858;6.572;2023-05-23T11:55:08;100877.16;;;16.14;80.63
4085;BME280;2057;50.858;6.572;2023-05-23T11:57:37;100883.41;;;15.97;81.17
4085;BME280;2057;50.858;6.572;2023-05-23T12:00:06;100889.72;;;15.82;81.69
4085;BME280;2057;50.858;6.572;2023-05-23T12:02:37;100887.63;;;15.71;82.04
4085;BME280;2057;50.858;6.572;2023-05-23T12:05:13;100889.38;;;15.47;83.75
4085;BME280;2057;50.858;6.572;2023-05-23T12:07:46;100896.19;;;14.77;87.02
4085;BME280;2057;50.858;6.572;2023-05-23T12:10:16;100903.19;;;14.60;87.37
4085;BME280;2057;50.858;6.572;2023-05-23T12:12:42;100887.88;;;14.83;88.04
4085;BME280;2057;50.858;6.572;2023-05-23T12:15:09;100895.44;;;15.02;87.08
4085;BME280;2057;50.858;6.572;2023-05-23T12:17:36;100886.88;;;15.25;86.21
4085;BME280;2057;50.858;6.572;2023-05-23T12:20:04;100897.03;;;15.23;83.70
4085;BME280;2057;50.858;6.572;2023-05-23T12:22:29;100894.44;;;15.21;84.50
4085;BME280;2057;50.858;6.572;2023-05-23T12:24:55;100891.56;;;15.14;84.21
4085;BME280;2057;50.858;6.572;2023-05-23T12:27:32;100892.75;;;14.99;82.16
4085;BME280;2057;50.858;6.572;2023-05-23T12:30:10;100898.00;;;15.02;83.34
4085;BME280;2057;50.858;6.572;2023-05-23T12:32:42;100896.59;;;15.11;82.68
4085;BME280;2057;50.858;6.572;2023-05-23T12:35:09;100897.28;;;15.29;82.29
4085;BME280;2057;50.858;6.572;2023-05-23T12:37:42;100890.28;;;15.25;81.34
4085;BME280;2057;50.858;6.572;2023-05-23T12:45:16;100891.81;;;16.19;78.68
4085;BME280;2057;50.858;6.572;2023-05-23T12:47:41;100888.50;;;16.23;77.81
4085;BME280;2057;50.858;6.572;2023-05-23T12:50:08;100896.59;;;16.62;77.87
4085;BME280;2057;50.858;6.572;2023-05-23T12:52:34;100888.47;;;17.05;75.17
4085;BME280;2057;50.858;6.572;2023-05-23T12:55:03;100901.50;;;17.11;74.46
4085;BME280;2057;50.858;6.572;2023-05-23T12:57:30;100894.22;;;16.69;73.52
4085;BME280;2057;50.858;6.572;2023-05-23T12:59:56;100889.72;;;17.50;73.71
4085;BME280;2057;50.858;6.572;2023-05-23T13:02:24;100890.75;;;17.90;70.01
4085;BME280;2057;50.858;6.572;2023-05-23T13:04:51;100890.75;;;17.56;69.07
4085;BME280;2057;50.858;6.572;2023-05-23T13:07:16;100889.06;;;17.25;68.84
4085;BME280;2057;50.858;6.572;2023-05-23T13:09:42;100889.25;;;17.65;67.03
4085;BME280;2057;50.858;6.572;2023-05-23T13:12:07;100893.41;;;17.60;67.29
4085;BME280;2057;50.858;6.572;2023-05-23T13:14:33;100889.25;;;17.65;66.60
4085;BME280;2057;50.858;6.572;2023-05-23T13:16:59;100890.31;;;17.39;65.81
4085;BME280;2057;50.858;6.572;2023-05-23T13:19:24;100894.47;;;17.36;66.45
4085;BME280;2057;50.858;6.572;2023-05-23T13:21:50;100886.66;;;17.31;66.64
4085;BME280;2057;50.858;6.572;2023-05-23T13:24:16;100889.41;;;17.39;68.41
4085;BME280;2057;50.858;6.572;2023-05-23T13:26:41;100904.19;;;17.16;68.64
4085;BME280;2057;50.858;6.572;2023-05-23T13:29:07;100894.38;;;17.33;67.69